Time;durP1;ratioP1;P1;durP2;ratioP2;P2;SDS_P1;SDS_P2;PMS_P1;PMS_P2;Temp;Humidity;BMP_temperature;BMP_pressure;BME280_temperature;BME280_humidity;BME280_pressure;Samples;Min_cycle;Max_cycle;Signal;HPM_P1;HPM_P2
2023/12/27 00:01:30;;;;;;;2.60;1.30;;;7.30;1.00;;;;;;5067007;28;20239;-79
2023/12/27 00:03:59;;;;;;;2.42;0.90;;;7.30;1.00;;;;;;5068100;28;20277;-79
2023/12/27 00:06:29;;;;;;;3.17;1.25;;;7.30;1.00;;;;;;5067977;28;20281;-79
2023/12/27 00:08:58;;;;;;;1.98;0.90;;;7.40;1.00;;;;;;5058201;28;20362;-79
2023/12/27 00:11:27;;;;;;;3.95;1.00;;;7.30;1.00;;;;;;5070155;28;20248;-79
2023/12/27 00:13:55;;;;;;;3.22;0.93;;;7.30;1.00;;;;;;5064203;28;20235;-80
2023/12/27 00:16:24;;;;;;;1.45;0.90;;;7.30;1.00;;;;;;5051640;28;20239;-79
2023/12/27 00:18:52;;;;;;;1.83;1.15;;;7.30;1.00;;;;;;5066230;28;20378;-80
2023/12/27 00:21:22;;;;;;;1.00;0.90;;;7.30;1.00;;;;;;5062123;28;20232;-80
2023/12/27 00:23:51;;;;;;;2.55;1.20;;;7.30;1.00;;;;;;5087654;28;20228;-80
2023/12/27 00:26:22;;;;;;;1.65;1.00;;;7.30;1.00;;;;;;5061568;28;20236;-79
2023/12/27 00:28:59;;;;;;;1.73;0.90;;;7.40;1.00;;;;;;5070414;28;20259;-80
2023/12/27 00:31:28;;;;;;;3.33;0.90;;;7.30;1.00;;;;;;5064019;28;20235;-79
2023/12/27 00:33:57;;;;;;;1.90;1.10;;;7.30;1.00;;;;;;5048438;28;20687;-80
2023/12/27 00:36:29;;;;;;;1.50;1.05;;;7.30;1.00;;;;;;5060012;28;20258;-79
2023/12/27 00:39:01;;;;;;;1.95;1.00;;;7.30;1.00;;;;;;5064871;28;20306;-80
2023/12/27 00:41:30;;;;;;;2.00;1.00;;;7.30;1.00;;;;;;5065339;28;20281;-80
2023/12/27 00:43:58;;;;;;;3.08;1.25;;;7.20;1.00;;;;;;5048404;28;20216;-79
2023/12/27 00:46:28;;;;;;;2.47;0.90;;;7.20;1.00;;;;;;5068053;28;20224;-79
2023/12/27 00:48:57;;;;;;;2.97;1.20;;;7.30;1.00;;;;;;5062542;28;20283;-79
2023/12/27 00:51:27;;;;;;;1.75;0.95;;;7.20;1.00;;;;;;5062240;28;20228;-79
2023/12/27 00:53:56;;;;;;;1.45;0.93;;;7.10;1.00;;;;;;5066574;28;20301;-78
2023/12/27 00:56:25;;;;;;;3.03;1.25;;;7.00;1.00;;;;;;5060630;28;20288;-79
2023/12/27 00:58:53;;;;;;;2.35;0.90;;;7.00;1.00;;;;;;5064499;28;20208;-78
2023/12/27 01:01:22;;;;;;;1.98;1.00;;;6.90;1.00;;;;;;5080135;28;20306;-78
2023/12/27 01:03:50;;;;;;;2.10;0.90;;;7.00;1.00;;;;;;5063160;28;20226;-78
2023/12/27 01:06:19;;;;;;;2.07;1.00;;;7.10;1.00;;;;;;5063527;28;20885;-79
2023/12/27 01:08:49;;;;;;;1.38;1.00;;;7.00;1.00;;;;;;5058766;28;20282;-79
2023/12/27 01:11:18;;;;;;;1.88;0.90;;;7.10;1.00;;;;;;5093534;28;20224;-79
2023/12/27 01:13:47;;;;;;;1.98;1.10;;;7.20;1.00;;;;;;5058568;28;20715;-79
2023/12/27 01:16:15;;;;;;;1.92;1.08;;;7.20;1.00;;;;;;5058169;28;20926;-78
2023/12/27 01:18:44;;;;;;;2.38;1.40;;;7.20;1.00;;;;;;5068305;28;20255;-79
2023/12/27 01:21:13;;;;;;;1.98;1.42;;;7.20;1.00;;;;;;5067613;28;20215;-78
2023/12/27 01:23:42;;;;;;;3.72;1.40;;;7.20;1.00;;;;;;5064787;28;20225;-78
2023/12/27 01:26:13;;;;;;;2.08;1.30;;;7.30;1.00;;;;;;5066653;28;20224;-78
2023/12/27 01:28:41;;;;;;;3.37;1.60;;;7.30;1.00;;;;;;5069903;28;20294;-79
2023/12/27 01:31:10;;;;;;;4.17;1.90;;;7.20;1.00;;;;;;5066757;28;20230;-79
2023/12/27 01:33:38;;;;;;;1.70;1.40;;;7.20;1.00;;;;;;5071332;28;20261;-78
2023/12/27 01:36:08;;;;;;;2.90;1.60;;;7.30;1.00;;;;;;5072451;28;20235;-78
2023/12/27 01:38:36;;;;;;;3.28;1.70;;;7.20;1.00;;;;;;5073152;28;20243;-80
2023/12/27 01:41:05;;;;;;;2.92;1.38;;;7.20;1.00;;;;;;5069630;28;20242;-78
2023/12/27 01:43:35;;;;;;;3.63;1.30;;;7.20;1.00;;;;;;5096874;28;20323;-78
2023/12/27 01:46:04;;;;;;;1.97;1.23;;;7.20;1.00;;;;;;5086108;28;20317;-79
2023/12/27 01:48:36;;;;;;;3.33;1.20;;;7.20;1.00;;;;;;5078491;28;20231;-78
2023/12/27 01:51:06;;;;;;;2.60;1.10;;;7.00;1.00;;;;;;5083373;28;20227;-78
2023/12/27 01:53:35;;;;;;;2.97;1.30;;;7.00;1.00;;;;;;5084191;28;20250;-79
2023/12/27 01:56:07;;;;;;;3.17;1.00;;;7.10;1.00;;;;;;5097845;28;20205;-78
2023/12/27 01:58:37;;;;;;;2.60;1.30;;;7.10;1.00;;;;;;5094307;28;20232;-78
2023/12/27 02:01:05;;;;;;;2.15;1.17;;;7.20;1.00;;;;;;5092675;28;20219;-78
2023/12/27 02:03:34;;;;;;;2.17;1.40;;;7.10;1.00;;;;;;5093647;28;20212;-78
2023/12/27 02:06:03;;;;;;;4.90;1.40;;;7.10;1.00;;;;;;5090375;27;20223;-78
2023/12/27 02:08:32;;;;;;;2.08;1.20;;;7.10;1.00;;;;;;5069339;28;20629;-80
2023/12/27 02:11:01;;;;;;;2.55;1.40;;;7.20;1.00;;;;;;5070036;28;20228;-78
2023/12/27 02:13:30;;;;;;;4.60;1.17;;;7.10;1.00;;;;;;5085754;28;20703;-80
2023/12/27 02:16:00;;;;;;;2.13;1.20;;;7.10;1.00;;;;;;5090602;28;20227;-72
2023/12/27 02:18:29;;;;;;;1.87;1.10;;;7.00;1.00;;;;;;5084107;28;20706;-77
2023/12/27 02:20:59;;;;;;;2.20;1.23;;;7.00;1.00;;;;;;5068384;28;20216;-78
2023/12/27 02:23:30;;;;;;;3.08;1.30;;;7.00;1.00;;;;;;5064007;28;20228;-78
2023/12/27 02:26:01;;;;;;;3.97;1.48;;;7.00;1.00;;;;;;5063986;28;20286;-78
2023/12/27 02:28:31;;;;;;;2.03;1.43;;;7.00;1.00;;;;;;5058896;28;20221;-79
2023/12/27 02:31:00;;;;;;;2.70;1.20;;;7.00;1.00;;;;;;5073277;28;20714;-79
2023/12/27 02:33:29;;;;;;;2.47;1.30;;;6.90;1.00;;;;;;5062774;28;20276;-79
2023/12/27 02:35:58;;;;;;;3.43;1.43;;;6.90;1.00;;;;;;5079310;28;20283;-79
2023/12/27 02:38:26;;;;;;;1.57;1.07;;;6.80;1.00;;;;;;5070598;28;20228;-80
2023/12/27 02:40:56;;;;;;;1.35;1.10;;;6.90;1.00;;;;;;5070106;28;20232;-80
2023/12/27 02:43:26;;;;;;;2.35;1.35;;;6.80;1.00;;;;;;5069967;28;20360;-77
2023/12/27 02:45:54;;;;;;;1.83;1.10;;;6.70;1.00;;;;;;5068196;28;20219;-79
2023/12/27 02:48:23;;;;;;;1.77;1.20;;;6.60;1.00;;;;;;5070092;28;20230;-80
2023/12/27 02:50:52;;;;;;;2.67;1.27;;;6.60;1.00;;;;;;5073526;28;20235;-79
2023/12/27 02:53:20;;;;;;;3.93;1.20;;;6.60;1.00;;;;;;5076664;28;20224;-79
2023/12/27 02:55:49;;;;;;;2.10;1.33;;;6.60;1.00;;;;;;5073828;28;20597;-78
2023/12/27 02:58:18;;;;;;;3.40;1.23;;;6.60;1.00;;;;;;5066343;28;20227;-79
2023/12/27 03:00:49;;;;;;;5.27;1.47;;;6.60;1.00;;;;;;5059304;28;20242;-79
2023/12/27 03:03:17;;;;;;;4.63;1.30;;;6.50;1.00;;;;;;5065013;28;20220;-79
2023/12/27 03:05:46;;;;;;;3.00;1.30;;;6.50;1.00;;;;;;5063066;28;20225;-79
2023/12/27 03:08:14;;;;;;;4.13;1.40;;;6.50;1.00;;;;;;5057731;28;20259;-79
2023/12/27 03:10:43;;;;;;;2.73;1.07;;;6.40;1.00;;;;;;5062650;28;20239;-79
2023/12/27 03:13:11;;;;;;;4.13;1.37;;;6.40;1.00;;;;;;5069825;28;20212;-76
2023/12/27 03:15:40;;;;;;;1.90;1.10;;;6.40;1.00;;;;;;5071343;28;20978;-79
2023/12/27 03:18:10;;;;;;;3.00;1.10;;;6.30;1.00;;;;;;5065168;28;20231;-79
2023/12/27 03:20:39;;;;;;;1.93;1.17;;;6.30;1.00;;;;;;5075692;28;20246;-79
2023/12/27 03:23:07;;;;;;;5.17;1.07;;;6.20;1.00;;;;;;5058132;28;21149;-78
2023/12/27 03:25:36;;;;;;;9.70;1.33;;;6.20;1.00;;;;;;5053622;28;20306;-78
2023/12/27 03:28:05;;;;;;;4.23;1.10;;;6.10;1.00;;;;;;5094765;28;20228;-78
2023/12/27 03:30:33;;;;;;;2.50;1.20;;;6.10;1.00;;;;;;5066908;28;20224;-79
2023/12/27 03:33:02;;;;;;;7.47;1.30;;;6.00;1.00;;;;;;5067610;28;20215;-75
2023/12/27 03:35:33;;;;;;;5.97;1.40;;;6.10;1.00;;;;;;5066941;28;20223;-77
2023/12/27 03:38:01;;;;;;;2.90;1.30;;;6.00;1.00;;;;;;5082529;28;20227;-78
2023/12/27 03:40:30;;;;;;;5.83;2.03;;;6.00;1.00;;;;;;5063408;28;20282;-78
2023/12/27 03:42:59;;;;;;;6.73;2.00;;;6.10;1.00;;;;;;5066114;28;20745;-79
2023/12/27 03:45:33;;;;;;;2.90;1.47;;;6.10;1.00;;;;;;5069723;28;20235;-78
2023/12/27 03:48:01;;;;;;;5.63;1.63;;;6.20;1.00;;;;;;5067954;28;20740;-79
2023/12/27 03:50:30;;;;;;;6.70;1.70;;;6.10;1.00;;;;;;5062380;28;20252;-78
2023/12/27 03:53:00;;;;;;;4.47;1.80;;;6.10;1.00;;;;;;5057829;28;20229;-78
2023/12/27 03:55:29;;;;;;;4.80;1.80;;;6.10;1.00;;;;;;5058677;28;20227;-77
2023/12/27 03:57:57;;;;;;;6.77;1.80;;;6.10;1.00;;;;;;5067852;28;20212;-77
2023/12/27 04:00:26;;;;;;;4.60;1.60;;;6.00;1.00;;;;;;5061097;28;20320;-77
2023/12/27 04:02:55;;;;;;;6.17;1.70;;;6.00;1.00;;;;;;5065996;28;20247;-78
2023/12/27 04:05:24;;;;;;;3.53;1.40;;;6.10;1.00;;;;;;5078084;28;20228;-78
2023/12/27 04:07:52;;;;;;;3.53;1.20;;;6.10;1.00;;;;;;5062955;28;20221;-79
2023/12/27 04:10:22;;;;;;;4.77;1.63;;;6.00;1.00;;;;;;5060519;28;20216;-79
2023/12/27 04:12:51;;;;;;;4.20;1.30;;;6.00;1.00;;;;;;5079010;28;20364;-78
2023/12/27 04:15:19;;;;;;;5.73;1.30;;;6.00;1.00;;;;;;5055229;28;20249;-78
2023/12/27 04:17:48;;;;;;;3.17;1.07;;;6.00;1.00;;;;;;5066869;28;20286;-80
2023/12/27 04:20:17;;;;;;;5.03;1.17;;;5.90;1.00;;;;;;5068755;28;20228;-79
2023/12/27 04:22:45;;;;;;;3.63;1.20;;;5.70;1.00;;;;;;5064338;28;20236;-80
2023/12/27 04:25:14;;;;;;;1.47;0.90;;;5.80;1.00;;;;;;5063037;28;20340;-80
2023/12/27 04:27:44;;;;;;;3.27;1.20;;;5.80;1.00;;;;;;5060306;28;20220;-79
2023/12/27 04:30:13;;;;;;;4.97;1.00;;;5.70;1.00;;;;;;5066092;28;20278;-81
2023/12/27 04:32:42;;;;;;;6.17;1.23;;;5.90;1.00;;;;;;5063197;28;20328;-79
2023/12/27 04:35:10;;;;;;;2.97;1.13;;;6.00;1.00;;;;;;5060901;28;20248;-79
2023/12/27 04:37:39;;;;;;;4.70;1.33;;;6.00;1.00;;;;;;5062381;28;20670;-80
2023/12/27 04:40:08;;;;;;;4.33;1.10;;;5.90;1.00;;;;;;5064823;28;20223;-80
2023/12/27 04:42:37;;;;;;;4.53;1.40;;;6.00;1.00;;;;;;5065659;28;20281;-79
2023/12/27 04:45:09;;;;;;;5.70;1.47;;;6.00;1.00;;;;;;5065347;28;20511;-79
2023/12/27 04:47:37;;;;;;;4.77;1.27;;;6.00;1.00;;;;;;5064146;28;20311;-79
2023/12/27 04:50:07;;;;;;;7.00;1.43;;;6.10;1.00;;;;;;5065108;28;20239;-79
2023/12/27 04:52:36;;;;;;;8.23;1.30;;;6.10;1.00;;;;;;5064745;28;20248;-80
2023/12/27 04:55:06;;;;;;;4.10;1.23;;;6.10;1.00;;;;;;5062852;28;20258;-79
2023/12/27 04:57:34;;;;;;;6.03;1.30;;;6.20;1.00;;;;;;5062561;28;20228;-79
2023/12/27 05:00:04;;;;;;;6.70;1.13;;;6.10;1.00;;;;;;5063572;28;20231;-79
2023/12/27 05:02:36;;;;;;;4.60;1.77;;;6.00;1.00;;;;;;5063377;28;20246;-79
2023/12/27 05:05:05;;;;;;;9.03;1.53;;;6.10;1.00;;;;;;5060807;28;20224;-80
2023/12/27 05:07:33;;;;;;;4.27;1.30;;;6.10;1.00;;;;;;5064939;28;20232;-79
2023/12/27 05:10:02;;;;;;;5.43;1.10;;;6.00;1.00;;;;;;5062342;28;20228;-79
2023/12/27 05:12:30;;;;;;;2.93;1.23;;;6.10;1.00;;;;;;5061290;28;20224;-79
2023/12/27 05:14:59;;;;;;;6.10;1.13;;;6.20;1.00;;;;;;5074811;28;20230;-79
2023/12/27 05:17:28;;;;;;;5.20;1.50;;;6.20;1.00;;;;;;5063323;28;21028;-79
2023/12/27 05:19:59;;;;;;;6.77;1.50;;;6.20;1.00;;;;;;5064271;28;20220;-79
2023/12/27 05:22:29;;;;;;;5.97;1.40;;;6.10;1.00;;;;;;5065095;28;20220;-79
2023/12/27 05:24:58;;;;;;;3.70;1.10;;;6.20;1.00;;;;;;5060479;28;20270;-79
2023/12/27 05:27:26;;;;;;;4.67;1.50;;;6.10;1.00;;;;;;5065086;28;20600;-79
2023/12/27 05:29:54;;;;;;;4.90;1.50;;;6.10;1.00;;;;;;5054772;28;20647;-79
2023/12/27 05:32:23;;;;;;;7.73;1.70;;;6.00;1.00;;;;;;5062279;28;20239;-79
2023/12/27 05:34:54;;;;;;;4.00;1.57;;;6.10;1.00;;;;;;5066798;28;20281;-78
2023/12/27 05:37:24;;;;;;;7.00;1.60;;;6.10;1.00;;;;;;5064200;28;20314;-77
2023/12/27 05:39:52;;;;;;;4.93;1.50;;;6.00;1.00;;;;;;5065826;28;20232;-78
2023/12/27 05:42:21;;;;;;;5.53;1.40;;;6.00;1.00;;;;;;5063258;28;20251;-78
2023/12/27 05:44:49;;;;;;;7.43;1.50;;;6.10;1.00;;;;;;5057013;28;20375;-78
2023/12/27 05:47:18;;;;;;;8.83;1.73;;;6.10;1.00;;;;;;5056013;28;20224;-79
2023/12/27 05:49:47;;;;;;;9.03;1.87;;;6.10;1.00;;;;;;5067029;28;20228;-77
2023/12/27 05:52:15;;;;;;;11.17;2.17;;;6.00;1.00;;;;;;5063688;28;20279;-77
2023/12/27 05:54:45;;;;;;;5.70;1.53;;;6.10;1.00;;;;;;5052215;28;20220;-78
2023/12/27 05:57:13;;;;;;;4.60;1.80;;;6.10;1.00;;;;;;5060537;28;20220;-79
2023/12/27 05:59:41;;;;;;;5.83;1.47;;;6.20;1.00;;;;;;5065028;28;20236;-78
2023/12/27 06:02:10;;;;;;;5.37;1.50;;;6.20;1.00;;;;;;5065653;28;20252;-77
2023/12/27 06:04:38;;;;;;;7.57;1.87;;;6.20;1.00;;;;;;5070413;28;20236;-78
2023/12/27 06:07:07;;;;;;;4.93;1.67;;;6.10;1.00;;;;;;5064946;28;20234;-78
2023/12/27 06:09:36;;;;;;;3.97;1.30;;;6.20;1.00;;;;;;5071557;28;20239;-78
2023/12/27 06:12:08;;;;;;;3.77;1.40;;;6.20;1.00;;;;;;5062868;28;20217;-78
2023/12/27 06:14:38;;;;;;;5.37;1.30;;;6.10;1.00;;;;;;5058999;28;20236;-78
2023/12/27 06:17:07;;;;;;;7.50;1.73;;;6.00;1.00;;;;;;5065707;28;20241;-79
2023/12/27 06:19:36;;;;;;;6.17;1.83;;;6.00;1.00;;;;;;5057140;28;20222;-78
2023/12/27 06:22:05;;;;;;;10.07;1.97;;;6.10;1.00;;;;;;5060987;28;20220;-78
2023/12/27 06:24:33;;;;;;;7.67;1.60;;;6.20;1.00;;;;;;5065919;28;20230;-78
2023/12/27 06:27:02;;;;;;;6.87;1.57;;;6.20;1.00;;;;;;5059580;28;20245;-78
2023/12/27 06:29:32;;;;;;;6.37;1.73;;;6.00;1.00;;;;;;5069446;28;20247;-77
2023/12/27 06:32:01;;;;;;;4.50;1.43;;;6.10;1.00;;;;;;5067548;28;20223;-78
2023/12/27 06:34:29;;;;;;;7.77;1.97;;;6.20;1.00;;;;;;5067722;28;20220;-78
2023/12/27 06:36:58;;;;;;;9.37;1.80;;;6.00;1.00;;;;;;5058537;28;20221;-77
2023/12/27 06:39:28;;;;;;;7.77;1.63;;;6.00;1.00;;;;;;5068390;28;20703;-78
2023/12/27 06:41:56;;;;;;;8.30;2.17;;;5.90;1.00;;;;;;5065026;28;20297;-77
2023/12/27 06:44:28;;;;;;;4.83;1.87;;;6.10;1.00;;;;;;5067618;28;20224;-78
2023/12/27 06:46:58;;;;;;;8.13;1.70;;;6.00;1.00;;;;;;5068100;28;20305;-78
2023/12/27 06:49:26;;;;;;;5.57;1.60;;;6.00;1.00;;;;;;5067606;28;20226;-78
2023/12/27 06:51:55;;;;;;;7.77;1.93;;;5.90;1.00;;;;;;5062355;28;20805;-78
2023/12/27 06:54:23;;;;;;;6.20;1.70;;;5.80;1.00;;;;;;5063512;28;20853;-78
2023/12/27 06:56:52;;;;;;;9.83;2.13;;;5.80;1.00;;;;;;5066908;28;20312;-77
2023/12/27 06:59:21;;;;;;;7.37;1.90;;;5.90;1.00;;;;;;5062111;28;20220;-78
2023/12/27 07:01:49;;;;;;;6.53;1.73;;;5.70;1.00;;;;;;5064312;28;20804;-78
2023/12/27 07:04:21;;;;;;;4.30;1.70;;;5.70;1.00;;;;;;5061949;28;20301;-77
2023/12/27 07:06:49;;;;;;;8.77;1.67;;;5.80;1.00;;;;;;5067493;28;20227;-78
2023/12/27 07:09:20;;;;;;;9.80;2.30;;;5.70;1.00;;;;;;5063507;28;20719;-78
2023/12/27 07:11:48;;;;;;;6.67;1.83;;;5.70;1.00;;;;;;5064950;28;20307;-78
2023/12/27 07:14:17;;;;;;;8.37;1.90;;;5.60;1.00;;;;;;5062569;28;20239;-78
2023/12/27 07:16:45;;;;;;;8.07;2.20;;;5.60;1.00;;;;;;5069471;28;20286;-79
2023/12/27 07:19:14;;;;;;;6.47;2.70;;;5.70;1.00;;;;;;5064357;28;20284;-78
2023/12/27 07:21:44;;;;;;;6.43;2.00;;;5.50;1.00;;;;;;5060301;28;20639;-79
2023/12/27 07:24:12;;;;;;;7.60;2.10;;;5.70;1.00;;;;;;5058626;28;20224;-78
2023/12/27 07:26:41;;;;;;;5.57;1.50;;;5.60;1.00;;;;;;5060438;28;20228;-76
2023/12/27 07:29:09;;;;;;;6.37;1.93;;;5.70;1.00;;;;;;5061796;28;20224;-78
2023/12/27 07:31:38;;;;;;;6.83;2.13;;;5.70;1.00;;;;;;5065741;28;20229;-77
2023/12/27 07:34:07;;;;;;;12.13;2.30;;;5.80;1.00;;;;;;5062906;28;20883;-78
2023/12/27 07:36:36;;;;;;;6.27;1.70;;;5.90;1.00;;;;;;5067518;28;20224;-76
2023/12/27 07:39:09;;;;;;;7.70;2.10;;;5.90;1.00;;;;;;5062757;28;20723;-78
2023/12/27 07:41:37;;;;;;;6.20;1.87;;;5.90;1.00;;;;;;5066469;28;20224;-77
2023/12/27 07:44:06;;;;;;;7.47;2.40;;;6.10;1.00;;;;;;5060564;28;20220;-79
2023/12/27 07:46:35;;;;;;;5.50;1.93;;;6.00;1.00;;;;;;5063811;28;20953;-79
2023/12/27 07:49:04;;;;;;;8.47;2.60;;;6.00;1.00;;;;;;5071448;28;20715;-79
2023/12/27 07:51:32;;;;;;;5.10;1.87;;;6.10;1.00;;;;;;5054519;28;20225;-79
2023/12/27 07:54:01;;;;;;;11.57;3.13;;;6.00;1.00;;;;;;5058796;28;20308;-79
2023/12/27 07:56:32;;;;;;;11.47;2.50;;;6.10;1.00;;;;;;5063546;28;20241;-78
2023/12/27 07:59:01;;;;;;;9.80;2.40;;;6.20;1.00;;;;;;5071003;28;20220;-78
2023/12/27 08:01:31;;;;;;;7.73;2.33;;;6.20;1.00;;;;;;5058843;28;20311;-78
2023/12/27 08:04:00;;;;;;;8.87;2.40;;;6.10;1.00;;;;;;5056718;28;20354;-78
2023/12/27 08:06:29;;;;;;;9.57;2.10;;;6.20;1.00;;;;;;5060942;28;20220;-78
2023/12/27 08:08:58;;;;;;;9.67;2.57;;;6.10;1.00;;;;;;5061324;28;20645;-79
2023/12/27 08:11:27;;;;;;;7.27;2.50;;;6.10;1.00;;;;;;5061139;28;20232;-78
2023/12/27 08:13:57;;;;;;;13.23;2.53;;;6.10;1.00;;;;;;5060065;28;20588;-78
2023/12/27 08:16:25;;;;;;;7.87;2.50;;;6.10;1.00;;;;;;5064710;28;20699;-78
2023/12/27 08:18:54;;;;;;;8.53;2.17;;;6.10;1.00;;;;;;5065021;28;20235;-78
2023/12/27 08:21:23;;;;;;;7.80;2.60;;;6.10;1.00;;;;;;5059724;28;20230;-78
2023/12/27 08:23:53;;;;;;;7.17;2.40;;;6.20;1.00;;;;;;5064689;28;20223;-78
2023/12/27 08:26:21;;;;;;;9.20;2.43;;;6.30;1.00;;;;;;5065281;28;20224;-78
2023/12/27 08:28:50;;;;;;;9.17;2.70;;;6.20;1.00;;;;;;5062385;28;20223;-77
2023/12/27 08:31:20;;;;;;;10.83;2.73;;;6.30;1.00;;;;;;5089195;28;21090;-78
2023/12/27 08:33:50;;;;;;;6.80;2.20;;;6.40;1.00;;;;;;5062029;28;20749;-78
2023/12/27 08:36:18;;;;;;;8.97;2.53;;;6.40;1.00;;;;;;5060863;28;20244;-78
2023/12/27 08:38:47;;;;;;;7.43;2.30;;;6.40;1.00;;;;;;5061229;28;20221;-77
2023/12/27 08:41:15;;;;;;;9.97;2.03;;;6.40;1.00;;;;;;5080412;28;20235;-78
2023/12/27 08:43:44;;;;;;;6.87;2.03;;;6.50;1.00;;;;;;5064370;28;20706;-78
2023/12/27 08:46:14;;;;;;;9.53;2.30;;;6.30;1.00;;;;;;5063677;28;20216;-78
2023/12/27 08:48:46;;;;;;;8.73;2.17;;;6.40;1.00;;;;;;5061325;28;20322;-78
2023/12/27 08:51:15;;;;;;;9.67;2.50;;;6.50;1.00;;;;;;5063026;28;20240;-78
2023/12/27 08:53:43;;;;;;;8.47;2.33;;;6.50;1.00;;;;;;5063160;28;20306;-77
2023/12/27 08:56:12;;;;;;;8.70;2.67;;;6.30;1.00;;;;;;5057462;28;20230;-78
2023/12/27 08:58:41;;;;;;;6.23;2.50;;;6.30;1.00;;;;;;5057182;28;20225;-78
2023/12/27 09:01:09;;;;;;;9.07;2.37;;;6.20;1.00;;;;;;5063984;28;20220;-78
2023/12/27 09:03:40;;;;;;;11.07;3.17;;;6.40;1.00;;;;;;5053769;28;20231;-78
2023/12/27 09:06:10;;;;;;;10.60;2.93;;;6.40;1.00;;;;;;5056889;28;20318;-78
2023/12/27 09:08:38;;;;;;;5.63;2.30;;;6.20;1.00;;;;;;5052664;28;20340;-77
2023/12/27 09:11:07;;;;;;;7.23;2.10;;;6.30;1.00;;;;;;5058914;28;20708;-78
2023/12/27 09:13:35;;;;;;;7.47;2.60;;;6.40;1.00;;;;;;5039190;28;20224;-78
2023/12/27 09:16:04;;;;;;;8.93;2.83;;;6.30;1.00;;;;;;5075107;28;20241;-78
2023/12/27 09:18:33;;;;;;;10.87;2.80;;;6.40;1.00;;;;;;5061833;28;20234;-78
2023/12/27 09:21:02;;;;;;;10.27;2.90;;;6.40;1.00;;;;;;5058545;28;20474;-78
2023/12/27 09:23:31;;;;;;;13.03;2.80;;;6.40;1.00;;;;;;5060905;28;20224;-78
2023/12/27 09:26:00;;;;;;;11.30;2.87;;;6.40;1.00;;;;;;5042865;28;20247;-78
2023/12/27 09:28:29;;;;;;;11.13;3.07;;;6.40;1.00;;;;;;5061171;28;20231;-78
2023/12/27 09:30:58;;;;;;;10.47;2.93;;;6.40;1.00;;;;;;5063484;28;20224;-79
2023/12/27 09:33:27;;;;;;;8.80;2.50;;;6.50;1.00;;;;;;5062100;28;20231;-78
2023/12/27 09:35:56;;;;;;;8.23;2.80;;;6.50;1.00;;;;;;5056021;28;20249;-79
2023/12/27 09:38:25;;;;;;;6.33;2.37;;;6.50;1.00;;;;;;5062069;28;20251;-78
2023/12/27 09:40:55;;;;;;;10.00;3.27;;;6.50;1.00;;;;;;5064586;28;20227;-76
2023/12/27 09:43:25;;;;;;;10.20;2.60;;;6.70;1.00;;;;;;5060890;28;20277;-79
2023/12/27 09:45:55;;;;;;;8.63;3.20;;;6.70;1.00;;;;;;5060556;28;20228;-78
2023/12/27 09:48:26;;;;;;;11.33;2.90;;;6.70;1.00;;;;;;5091325;28;20514;-79
2023/12/27 09:50:58;;;;;;;7.80;2.70;;;6.70;1.00;;;;;;5065278;28;20230;-78
2023/12/27 09:53:28;;;;;;;9.67;3.03;;;6.90;1.00;;;;;;5061187;28;20283;-78
2023/12/27 09:55:59;;;;;;;10.23;2.60;;;6.80;1.00;;;;;;5067086;28;20232;-78
2023/12/27 09:58:28;;;;;;;9.73;2.80;;;6.80;1.00;;;;;;5057762;28;20262;-77
2023/12/27 10:01:01;;;;;;;11.97;2.70;;;6.80;1.00;;;;;;5065346;28;20224;-78
2023/12/27 10:03:35;;;;;;;9.45;2.90;;;6.80;1.00;;;;;;5060752;28;20224;-79
2023/12/27 10:06:13;;;;;;;13.77;2.63;;;7.00;1.00;;;;;;5063932;28;20247;-78
2023/12/27 10:08:41;;;;;;;8.60;2.83;;;6.90;1.00;;;;;;5065589;28;20232;-79
2023/12/27 10:11:12;;;;;;;10.17;2.40;;;7.00;1.00;;;;;;5066425;28;20219;-78
2023/12/27 10:13:43;;;;;;;12.93;3.33;;;7.00;1.00;;;;;;5065878;28;20228;-79
2023/12/27 10:16:12;;;;;;;11.47;2.97;;;7.00;1.00;;;;;;5057808;28;20300;-79
2023/12/27 10:18:41;;;;;;;9.23;2.83;;;6.90;1.00;;;;;;5060172;28;20704;-78
2023/12/27 10:21:09;;;;;;;14.60;2.73;;;6.90;1.00;;;;;;5059647;28;20219;-79
2023/12/27 10:23:40;;;;;;;8.07;2.20;;;7.10;1.00;;;;;;5066108;28;20243;-78
2023/12/27 10:26:09;;;;;;;11.43;2.63;;;7.00;1.00;;;;;;5066864;28;20257;-79
2023/12/27 10:28:39;;;;;;;7.50;2.50;;;6.90;1.00;;;;;;5060931;28;20800;-79
2023/12/27 10:31:07;;;;;;;7.97;3.00;;;7.00;1.00;;;;;;5060464;28;20283;-79
2023/12/27 10:33:42;;;;;;;7.40;2.70;;;7.00;1.00;;;;;;5065789;28;20341;-76
2023/12/27 10:36:11;;;;;;;12.67;3.27;;;7.10;1.00;;;;;;5067363;28;20226;-77
2023/12/27 10:38:40;;;;;;;11.67;2.97;;;7.00;1.00;;;;;;5067953;28;20310;-79
2023/12/27 10:41:09;;;;;;;9.83;3.00;;;7.10;1.00;;;;;;5064851;28;20239;-78
2023/12/27 10:43:39;;;;;;;8.70;2.67;;;7.00;1.00;;;;;;5061533;28;20239;-76
2023/12/27 10:46:11;;;;;;;7.73;3.00;;;7.00;1.00;;;;;;5068170;28;20231;-78
2023/12/27 10:48:40;;;;;;;8.43;3.33;;;6.90;1.00;;;;;;5066111;28;20308;-78
2023/12/27 10:51:10;;;;;;;10.47;3.20;;;7.00;1.00;;;;;;5069302;28;20224;-78
2023/12/27 10:53:43;;;;;;;10.70;2.93;;;7.00;1.00;;;;;;5068689;28;20227;-78
2023/12/27 10:56:14;;;;;;;10.67;3.03;;;7.20;1.00;;;;;;5056960;28;20241;-79
2023/12/27 10:58:45;;;;;;;10.27;2.85;;;7.20;1.00;;;;;;5066528;28;20277;-78
2023/12/27 11:01:16;;;;;;;12.13;3.15;;;7.10;1.00;;;;;;5066632;28;20303;-78
2023/12/27 11:03:46;;;;;;;10.03;2.90;;;7.10;1.00;;;;;;5062486;28;20362;-77
2023/12/27 11:06:16;;;;;;;9.43;2.85;;;7.00;1.00;;;;;;5058288;28;20290;-76
2023/12/27 11:08:46;;;;;;;12.13;2.75;;;7.20;1.00;;;;;;5055291;28;20233;-78
2023/12/27 11:11:16;;;;;;;11.15;3.03;;;7.00;1.00;;;;;;5065576;28;20232;-78
2023/12/27 11:13:48;;;;;;;12.63;3.00;;;7.00;1.00;;;;;;5063288;28;20258;-78
2023/12/27 11:16:19;;;;;;;14.37;3.20;;;7.00;1.00;;;;;;5064742;28;20235;-78
2023/12/27 11:18:51;;;;;;;10.70;2.93;;;7.00;1.00;;;;;;5067248;28;20226;-77
2023/12/27 11:21:20;;;;;;;12.13;3.23;;;7.00;1.00;;;;;;5061537;28;20259;-78
2023/12/27 11:23:48;;;;;;;12.27;3.03;;;7.10;1.00;;;;;;5065275;28;20262;-79
2023/12/27 11:26:17;;;;;;;9.70;3.50;;;7.10;1.00;;;;;;5067341;28;20221;-78
2023/12/27 11:28:47;;;;;;;10.47;2.83;;;7.10;1.00;;;;;;5066645;28;20224;-78
2023/12/27 11:31:16;;;;;;;8.30;3.00;;;7.20;1.00;;;;;;5075004;28;20229;-78
2023/12/27 11:33:45;;;;;;;9.60;3.10;;;7.10;1.00;;;;;;5064404;28;20234;-78
2023/12/27 11:36:13;;;;;;;10.97;2.90;;;7.20;1.00;;;;;;5065251;28;20224;-78
2023/12/27 11:38:43;;;;;;;12.43;2.97;;;7.10;1.00;;;;;;5066863;28;20246;-77
2023/12/27 11:41:12;;;;;;;12.25;3.22;;;7.20;1.00;;;;;;5066815;28;20217;-78
2023/12/27 11:44:03;;;;;;;9.13;3.00;;;7.30;1.00;;;;;;5059408;28;20224;-76
2023/12/27 11:46:32;;;;;;;12.87;5.87;;;7.30;1.00;;;;;;5081688;28;20750;-78
2023/12/27 11:49:01;;;;;;;14.48;4.25;;;7.30;1.00;;;;;;5065611;28;20220;-80
2023/12/27 11:51:32;;;;;;;17.33;5.07;;;7.10;1.00;;;;;;5051142;28;20311;-79
2023/12/27 11:54:02;;;;;;;13.90;6.03;;;7.40;1.00;;;;;;5066348;28;20315;-79
2023/12/27 11:56:32;;;;;;;16.10;7.67;;;7.30;1.00;;;;;;5077631;28;20231;-79
2023/12/27 11:59:07;;;;;;;13.57;4.50;;;7.30;1.00;;;;;;5060044;28;20314;-78
2023/12/27 12:01:38;;;;;;;10.20;3.33;;;7.20;1.00;;;;;;5063949;28;20311;-78
2023/12/27 12:04:35;;;;;;;9.53;3.10;;;7.10;1.00;;;;;;5066694;28;20224;-78
2023/12/27 12:07:36;;;;;;;7.10;2.90;;;7.20;1.00;;;;;;5062614;28;20711;-81
2023/12/27 12:10:20;;;;;;;7.83;2.80;;;7.30;1.00;;;;;;5054809;28;20220;-77
2023/12/27 12:12:51;;;;;;;9.07;3.13;;;7.30;1.00;;;;;;5063474;28;20312;-79
2023/12/27 12:15:28;;;;;;;12.38;3.30;;;7.30;1.00;;;;;;5061083;28;20220;-80
2023/12/27 12:17:58;;;;;;;13.65;3.78;;;7.30;1.00;;;;;;5064186;28;20222;-79
2023/12/27 12:20:28;;;;;;;10.03;3.57;;;7.30;1.00;;;;;;5065671;28;20232;-79
2023/12/27 12:22:59;;;;;;;11.80;3.15;;;7.10;1.00;;;;;;5064846;28;20259;-79
2023/12/27 12:25:28;;;;;;;11.73;3.30;;;7.10;1.00;;;;;;5053845;28;20278;-78
2023/12/27 12:27:59;;;;;;;12.23;3.90;;;7.20;1.00;;;;;;5048052;28;20228;-78
2023/12/27 12:30:30;;;;;;;17.00;5.03;;;7.10;1.00;;;;;;5063510;28;20232;-78
2023/12/27 12:32:59;;;;;;;14.73;4.10;;;7.20;1.00;;;;;;5060588;28;20901;-77
2023/12/27 12:35:28;;;;;;;13.55;3.80;;;7.10;1.00;;;;;;5062741;28;20220;-77
2023/12/27 12:37:57;;;;;;;11.70;3.50;;;6.90;1.00;;;;;;5064362;28;21034;-77
2023/12/27 12:40:26;;;;;;;9.13;3.47;;;7.00;1.00;;;;;;5067430;28;20293;-78
2023/12/27 12:42:57;;;;;;;9.83;3.00;;;7.10;1.00;;;;;;5061946;28;20232;-78
2023/12/27 12:45:26;;;;;;;12.18;4.20;;;7.00;1.00;;;;;;5063094;28;20280;-77
2023/12/27 12:47:56;;;;;;;10.70;3.40;;;7.10;1.00;;;;;;5057200;28;20557;-77
2023/12/27 12:50:25;;;;;;;8.18;3.33;;;7.10;1.00;;;;;;5063948;28;20223;-76
2023/12/27 12:52:54;;;;;;;13.60;3.35;;;7.20;1.00;;;;;;5064111;28;20240;-77
2023/12/27 12:55:28;;;;;;;9.00;3.17;;;7.30;1.00;;;;;;5054372;28;20221;-77
2023/12/27 12:57:58;;;;;;;11.60;3.20;;;7.20;1.00;;;;;;5061481;28;20220;-77
2023/12/27 13:00:28;;;;;;;11.32;4.90;;;7.30;1.00;;;;;;5064050;28;20313;-78
2023/12/27 13:02:59;;;;;;;19.33;5.97;;;7.20;1.00;;;;;;5077814;28;20215;-76
2023/12/27 13:05:28;;;;;;;21.42;5.13;;;7.30;1.00;;;;;;5073309;28;20295;-77
2023/12/27 13:07:57;;;;;;;11.93;4.27;;;7.20;1.00;;;;;;5087094;28;20257;-77
2023/12/27 13:10:25;;;;;;;10.07;3.00;;;7.20;1.00;;;;;;5061115;28;20283;-78
2023/12/27 13:12:54;;;;;;;9.70;2.88;;;7.10;1.00;;;;;;5062832;28;20220;-77
2023/12/27 13:15:23;;;;;;;8.73;2.87;;;7.00;1.00;;;;;;5060513;28;20227;-77
2023/12/27 13:17:51;;;;;;;6.70;2.80;;;7.20;1.00;;;;;;5059451;28;20274;-77